createdAt,value
2019-05-09T00:01:30.712Z,1.40
2019-05-09T00:04:03.412Z,1.80
2019-05-09T00:06:34.112Z,1.80
2019-05-09T00:09:05.500Z,2.00
2019-05-09T00:11:35.589Z,2.20
2019-05-09T00:14:06.364Z,2.00
2019-05-09T00:16:36.481Z,1.40
2019-05-09T00:19:07.321Z,3.00
2019-05-09T00:21:54.478Z,2.20
2019-05-09T00:24:24.753Z,2.20
2019-05-09T00:26:55.280Z,2.40
2019-05-09T00:29:36.797Z,2.80
2019-05-09T00:32:23.778Z,3.40
2019-05-09T00:34:54.792Z,2.00
2019-05-09T00:37:43.608Z,2.00
2019-05-09T00:40:13.835Z,2.60
2019-05-09T00:42:44.749Z,2.80
2019-05-09T00:45:23.882Z,2.40
2019-05-09T00:47:54.196Z,0.00
2019-05-09T00:50:24.316Z,2.20
2019-05-09T00:52:54.676Z,3.00
2019-05-09T00:55:24.757Z,2.00
2019-05-09T00:57:55.108Z,2.80
2019-05-09T01:00:25.318Z,2.60
2019-05-09T01:02:55.556Z,3.00
2019-05-09T01:05:26.264Z,3.00
2019-05-09T01:07:56.500Z,2.00
2019-05-09T01:10:26.831Z,3.00
2019-05-09T01:12:57.044Z,2.00
2019-05-09T01:15:27.764Z,1.40
2019-05-09T01:17:57.981Z,2.00
2019-05-09T01:20:28.237Z,2.40
2019-05-09T01:22:58.460Z,2.00
2019-05-09T01:25:29.052Z,2.00
2019-05-09T01:27:59.177Z,0.20
2019-05-09T01:30:29.332Z,2.40
2019-05-09T01:33:04.263Z,2.00
2019-05-09T01:35:34.874Z,2.20
2019-05-09T01:38:05.703Z,3.20
2019-05-09T01:40:36.225Z,3.00
2019-05-09T01:43:06.376Z,4.00
2019-05-09T01:45:36.592Z,5.40
2019-05-09T01:48:06.805Z,5.20
2019-05-09T01:50:37.145Z,2.80
2019-05-09T01:53:07.252Z,3.20
2019-05-09T01:55:55.451Z,3.80
2019-05-09T01:58:25.520Z,4.20
2019-05-09T02:00:55.737Z,3.60
2019-05-09T02:03:25.752Z,3.80
2019-05-09T02:05:56.253Z,4.60
2019-05-09T02:08:26.488Z,3.20
2019-05-09T02:10:56.821Z,4.00
2019-05-09T02:13:27.124Z,3.80
2019-05-09T02:16:05.226Z,4.00
2019-05-09T02:18:49.607Z,3.60
2019-05-09T02:21:19.927Z,3.60
2019-05-09T02:23:50.128Z,5.60
2019-05-09T02:26:20.609Z,4.80
2019-05-09T02:28:50.917Z,3.20
2019-05-09T02:31:24.157Z,4.00
2019-05-09T02:33:54.362Z,3.00
2019-05-09T02:36:24.746Z,2.00
2019-05-09T02:38:55.249Z,2.00
2019-05-09T02:41:28.502Z,3.60
2019-05-09T02:43:58.596Z,3.40
2019-05-09T02:46:38.570Z,3.20
2019-05-09T02:49:09.019Z,1.80
2019-05-09T02:51:39.180Z,3.60
2019-05-09T02:54:10.112Z,4.80
2019-05-09T02:56:39.937Z,3.00
2019-05-09T02:59:12.297Z,4.00
2019-05-09T03:01:44.369Z,4.00
2019-05-09T03:04:14.576Z,2.00
2019-05-09T03:06:44.786Z,4.00
2019-05-09T03:09:18.723Z,5.00
2019-05-09T03:11:48.507Z,3.00
2019-05-09T03:14:19.612Z,4.40
2019-05-09T03:16:49.993Z,3.80
2019-05-09T03:19:20.445Z,3.20
2019-05-09T03:22:01.193Z,3.80
2019-05-09T03:24:32.008Z,4.00
2019-05-09T03:27:04.152Z,4.60
2019-05-09T03:29:39.909Z,3.80
2019-05-09T03:32:10.760Z,4.00
2019-05-09T03:34:40.571Z,4.60
2019-05-09T03:37:11.221Z,4.80
2019-05-09T03:39:41.324Z,5.00
2019-05-09T03:42:11.562Z,6.00
2019-05-09T03:44:42.574Z,4.80
2019-05-09T03:47:23.701Z,5.00
2019-05-09T03:50:14.432Z,5.80
2019-05-09T03:52:44.795Z,6.00
2019-05-09T03:55:17.891Z,6.00
2019-05-09T03:58:02.868Z,6.40
2019-05-09T04:00:33.164Z,5.00
2019-05-09T04:03:03.409Z,5.00
2019-05-09T04:05:34.225Z,4.00
2019-05-09T04:08:20.831Z,6.00
2019-05-09T04:10:52.668Z,4.60
2019-05-09T04:13:25.396Z,5.00
2019-05-09T04:15:58.049Z,5.00
2019-05-09T04:18:28.074Z,5.40
2019-05-09T04:20:58.314Z,5.00
2019-05-09T04:23:28.521Z,4.80
2019-05-09T04:26:07.567Z,1.00
2019-05-09T04:28:39.651Z,6.00
2019-05-09T04:31:10.025Z,3.40
2019-05-09T04:33:40.272Z,4.00
2019-05-09T04:36:10.573Z,5.00
2019-05-09T04:38:41.880Z,5.00
2019-05-09T04:41:16.367Z,5.20
2019-05-09T04:43:44.918Z,5.40
2019-05-09T04:46:20.692Z,5.00
2019-05-09T04:48:47.636Z,5.40
2019-05-09T04:51:18.265Z,6.40
2019-05-09T04:53:48.675Z,5.20
2019-05-09T04:56:21.129Z,5.80
2019-05-09T04:58:51.985Z,7.00
2019-05-09T05:01:24.280Z,6.00
2019-05-09T05:03:57.332Z,7.00
2019-05-09T05:06:28.066Z,9.20
2019-05-09T05:08:59.175Z,8.00
2019-05-09T05:11:29.564Z,6.20
2019-05-09T05:13:59.544Z,6.60
2019-05-09T05:16:29.742Z,7.20
2019-05-09T05:19:00.297Z,7.40
2019-05-09T05:21:31.060Z,5.80
2019-05-09T05:24:02.733Z,6.60
2019-05-09T05:26:32.815Z,7.20
2019-05-09T05:29:03.264Z,6.00
2019-05-09T05:31:33.394Z,6.40
2019-05-09T05:34:14.068Z,6.00
2019-05-09T05:36:44.271Z,5.00
2019-05-09T05:39:14.886Z,5.80
2019-05-09T05:41:45.190Z,5.60
2019-05-09T05:44:15.206Z,6.40
2019-05-09T05:47:03.611Z,6.80
2019-05-09T05:49:34.101Z,6.00
2019-05-09T05:52:04.202Z,9.00
2019-05-09T05:54:34.441Z,10.00
2019-05-09T05:57:05.380Z,7.20
2019-05-09T05:59:40.388Z,7.60
2019-05-09T06:02:08.841Z,8.60
2019-05-09T06:04:39.740Z,7.20
2019-05-09T06:07:09.982Z,6.00
2019-05-09T06:09:40.597Z,7.00
2019-05-09T06:12:10.834Z,7.00
2019-05-09T06:14:40.920Z,5.80
2019-05-09T06:17:11.269Z,4.40
2019-05-09T06:19:41.684Z,5.20
2019-05-09T06:22:11.925Z,5.80
2019-05-09T06:24:42.153Z,6.20
2019-05-09T06:27:12.608Z,7.00
2019-05-09T06:29:43.130Z,8.80
2019-05-09T06:32:13.816Z,5.80
2019-05-09T06:34:44.344Z,6.20
2019-05-09T06:37:14.869Z,5.00
2019-05-09T06:39:45.621Z,5.00
2019-05-09T06:42:18.109Z,5.60
2019-05-09T06:44:49.812Z,7.20
2019-05-09T06:47:21.812Z,6.20
2019-05-09T06:49:53.618Z,5.20
2019-05-09T06:52:24.132Z,7.20
2019-05-09T06:54:54.472Z,9.00
2019-05-09T06:57:27.875Z,5.80
2019-05-09T06:59:57.887Z,4.60
2019-05-09T07:02:30.066Z,5.60
2019-05-09T07:05:17.981Z,8.40
2019-05-09T07:07:50.173Z,6.00
2019-05-09T07:10:20.678Z,7.60
2019-05-09T07:12:51.078Z,5.80
2019-05-09T07:15:21.292Z,5.60
2019-05-09T07:17:51.513Z,4.60
2019-05-09T07:20:22.441Z,5.60
2019-05-09T07:22:54.416Z,7.40
2019-05-09T07:25:27.749Z,6.00
2019-05-09T07:27:58.914Z,6.00
2019-05-09T07:30:48.128Z,5.60
2019-05-09T07:33:23.463Z,6.00
2019-05-09T07:35:53.880Z,3.00
2019-05-09T07:38:31.246Z,4.00
2019-05-09T07:41:01.437Z,6.60
2019-05-09T07:43:31.823Z,5.60
2019-05-09T07:46:03.884Z,6.00
2019-05-09T07:48:34.517Z,4.60
2019-05-09T07:51:04.703Z,5.00
2019-05-09T07:53:37.795Z,5.20
2019-05-09T07:56:08.201Z,4.80
2019-05-09T07:58:38.467Z,5.40
2019-05-09T08:01:08.979Z,3.80
2019-05-09T08:03:38.994Z,6.00
2019-05-09T08:06:09.417Z,6.20
2019-05-09T08:08:39.546Z,6.20
2019-05-09T08:11:09.773Z,6.60
2019-05-09T08:13:40.015Z,4.80
2019-05-09T08:16:14.592Z,8.20
2019-05-09T08:18:42.377Z,3.80
2019-05-09T08:21:12.521Z,5.00
2019-05-09T08:23:42.742Z,5.60
2019-05-09T08:26:12.823Z,5.00
2019-05-09T08:28:43.409Z,5.00
2019-05-09T08:31:13.708Z,5.20
2019-05-09T08:33:44.332Z,6.80
2019-05-09T08:36:17.721Z,6.00
2019-05-09T08:38:47.834Z,5.60
2019-05-09T08:41:18.823Z,4.60
2019-05-09T08:43:49.097Z,4.60
2019-05-09T08:46:19.890Z,3.80
2019-05-09T08:48:51.170Z,4.00
2019-05-09T08:51:23.167Z,4.60
2019-05-09T08:53:53.481Z,5.20
2019-05-09T08:56:24.613Z,3.60
2019-05-09T08:58:57.928Z,5.80
2019-05-09T09:01:35.202Z,4.20
2019-05-09T09:03:58.211Z,5.00
2019-05-09T09:06:29.082Z,4.40
2019-05-09T09:08:59.704Z,4.20
2019-05-09T09:11:29.832Z,4.00
2019-05-09T09:14:00.467Z,4.60
2019-05-09T09:16:30.572Z,5.40
2019-05-09T09:19:00.831Z,5.00
2019-05-09T09:21:31.023Z,4.40
2019-05-09T09:24:01.646Z,4.80
2019-05-09T09:26:31.908Z,4.60
2019-05-09T09:29:01.992Z,7.00
2019-05-09T09:31:32.629Z,6.80
2019-05-09T09:34:03.026Z,9.00
2019-05-09T09:36:33.267Z,7.00
2019-05-09T09:39:04.752Z,9.80
2019-05-09T09:41:38.313Z,8.00
2019-05-09T09:44:08.788Z,7.20
2019-05-09T09:46:38.950Z,9.00
2019-05-09T09:49:09.584Z,9.40
2019-05-09T09:51:39.702Z,9.00
2019-05-09T09:54:10.229Z,9.00
2019-05-09T09:56:40.161Z,9.00
2019-05-09T09:59:15.278Z,10.20
2019-05-09T10:01:47.826Z,8.00
2019-05-09T10:04:24.032Z,7.00
2019-05-09T10:06:53.127Z,8.00
2019-05-09T10:09:23.314Z,9.00
2019-05-09T10:11:56.976Z,7.40
2019-05-09T10:14:39.958Z,9.40
2019-05-09T10:17:28.467Z,9.60
2019-05-09T10:20:00.529Z,9.20
2019-05-09T10:22:30.732Z,9.20
2019-05-09T10:25:01.120Z,10.40
2019-05-09T10:27:31.365Z,10.00
2019-05-09T10:30:01.545Z,11.80
2019-05-09T10:32:31.757Z,7.60
2019-05-09T10:35:02.724Z,7.80
2019-05-09T10:37:33.018Z,8.60
2019-05-09T10:40:03.165Z,9.00
2019-05-09T10:42:37.731Z,9.60
2019-05-09T10:45:08.727Z,9.80
2019-05-09T10:47:38.658Z,8.40
2019-05-09T10:50:09.185Z,11.00
2019-05-09T10:52:39.991Z,8.40
2019-05-09T10:55:10.930Z,9.40
2019-05-09T10:57:42.810Z,13.00
2019-05-09T11:00:13.232Z,9.00
2019-05-09T11:02:43.735Z,9.40
2019-05-09T11:05:14.188Z,12.00
2019-05-09T11:07:44.713Z,11.00
2019-05-09T11:10:25.980Z,11.80
2019-05-09T11:12:47.832Z,8.20
2019-05-09T11:15:18.284Z,8.20
2019-05-09T11:17:48.535Z,4.20
2019-05-09T11:20:19.521Z,4.40
2019-05-09T11:22:49.957Z,0.00
2019-05-09T11:25:20.077Z,2.60
2019-05-09T11:28:06.794Z,1.20
2019-05-09T11:30:22.080Z,2.00
2019-05-09T11:32:52.285Z,1.80
2019-05-09T11:35:22.942Z,2.00
2019-05-09T11:37:53.953Z,2.00
2019-05-09T11:40:24.575Z,2.00
2019-05-09T11:42:55.326Z,1.00
2019-05-09T11:45:27.939Z,1.00
2019-05-09T11:47:58.470Z,0.20
2019-05-09T11:50:28.897Z,0.40
2019-05-09T11:53:00.123Z,0.00
2019-05-09T11:55:35.901Z,0.00
2019-05-09T11:58:02.621Z,0.00
2019-05-09T12:00:32.722Z,0.40
2019-05-09T12:03:03.329Z,0.00
2019-05-09T12:05:34.068Z,0.00
2019-05-09T12:08:04.456Z,0.00
2019-05-09T12:10:34.942Z,0.00
2019-05-09T12:13:05.081Z,0.00
2019-05-09T12:15:34.959Z,0.00
2019-05-09T12:18:09.167Z,0.00
2019-05-09T12:20:37.670Z,0.00
2019-05-09T12:23:07.960Z,0.00
2019-05-09T12:25:38.772Z,0.00
2019-05-09T12:28:09.553Z,0.00
2019-05-09T12:30:39.784Z,0.00
2019-05-09T12:33:09.937Z,0.00
2019-05-09T12:35:40.312Z,0.00
2019-05-09T12:38:10.341Z,0.00
2019-05-09T12:40:40.665Z,0.00
2019-05-09T12:43:11.193Z,0.00
2019-05-09T12:45:41.916Z,0.00
2019-05-09T12:48:15.491Z,0.00
2019-05-09T12:50:44.013Z,0.00
2019-05-09T12:53:14.625Z,0.00
2019-05-09T12:55:44.661Z,0.00
2019-05-09T12:58:30.137Z,0.00
2019-05-09T13:01:00.564Z,0.00
2019-05-09T13:03:30.903Z,0.00
2019-05-09T13:06:01.547Z,0.00
2019-05-09T13:08:32.120Z,0.00
2019-05-09T13:11:03.048Z,0.00
2019-05-09T13:13:33.517Z,1.00
2019-05-09T13:16:11.970Z,0.00
2019-05-09T13:19:02.314Z,0.00
2019-05-09T13:21:32.742Z,0.00
2019-05-09T13:24:02.658Z,0.00
2019-05-09T13:26:32.910Z,0.00
2019-05-09T13:29:03.100Z,0.00
2019-05-09T13:31:34.784Z,0.00
2019-05-09T13:34:07.858Z,0.40
2019-05-09T13:36:37.340Z,0.00
2019-05-09T13:39:10.583Z,0.00
2019-05-09T13:41:40.896Z,0.40
2019-05-09T13:44:13.907Z,1.00
2019-05-09T13:46:42.840Z,1.00
2019-05-09T13:49:15.569Z,2.00
2019-05-09T13:51:51.891Z,2.00
2019-05-09T13:54:18.506Z,4.20
2019-05-09T13:56:54.628Z,3.40
2019-05-09T13:59:20.748Z,2.80
2019-05-09T14:01:51.647Z,2.00
2019-05-09T14:04:22.378Z,4.40
2019-05-09T14:06:53.512Z,5.40
2019-05-09T14:09:29.604Z,6.00
2019-05-09T14:12:00.201Z,4.00
2019-05-09T14:14:30.321Z,6.00
2019-05-09T14:17:00.573Z,2.20
2019-05-09T14:19:40.554Z,4.00
2019-05-09T14:22:03.532Z,4.00
2019-05-09T14:24:33.800Z,4.20
2019-05-09T14:27:03.917Z,6.60
2019-05-09T14:29:34.546Z,6.80
2019-05-09T14:32:05.444Z,4.00
2019-05-09T14:34:38.184Z,4.80
2019-05-09T14:37:09.601Z,3.80
2019-05-09T14:39:53.827Z,4.40
2019-05-09T14:42:12.079Z,3.00
2019-05-09T14:44:42.602Z,3.60
2019-05-09T14:47:12.838Z,4.00
2019-05-09T14:49:44.648Z,6.00
2019-05-09T14:52:14.841Z,3.40
2019-05-09T14:54:48.089Z,1.40
2019-05-09T14:57:17.569Z,3.40
2019-05-09T14:59:48.868Z,4.00
2019-05-09T15:02:19.012Z,3.00
2019-05-09T15:04:48.985Z,2.00
2019-05-09T15:07:19.520Z,2.00
2019-05-09T15:09:50.157Z,3.00
2019-05-09T15:12:20.868Z,2.20
2019-05-09T15:14:51.025Z,3.20
2019-05-09T15:17:21.248Z,2.60
2019-05-09T15:19:59.690Z,2.80
2019-05-09T15:22:23.492Z,3.00
2019-05-09T15:24:53.839Z,2.20
2019-05-09T15:27:24.573Z,3.00
2019-05-09T15:29:55.404Z,3.40
2019-05-09T15:32:27.568Z,2.00
2019-05-09T15:34:57.893Z,3.40
2019-05-09T15:37:28.757Z,2.00
2019-05-09T15:39:59.091Z,2.00
2019-05-09T15:42:30.550Z,2.40
2019-05-09T15:45:01.342Z,1.20
2019-05-09T15:47:33.733Z,2.00
2019-05-09T15:50:16.545Z,1.60
2019-05-09T15:52:38.273Z,1.80
2019-05-09T15:55:09.681Z,2.80
2019-05-09T15:57:39.846Z,2.00
2019-05-09T16:00:11.443Z,2.20
2019-05-09T16:02:41.626Z,2.00
2019-05-09T16:05:12.122Z,1.80
2019-05-09T16:07:42.557Z,1.40
2019-05-09T16:10:13.384Z,2.00
2019-05-09T16:12:43.914Z,2.60
2019-05-09T16:15:14.626Z,2.20
2019-05-09T16:17:48.126Z,1.00
2019-05-09T16:20:22.946Z,2.00
2019-05-09T16:22:48.824Z,1.80
2019-05-09T16:25:19.628Z,1.80
2019-05-09T16:27:49.893Z,2.00
2019-05-09T16:30:20.516Z,1.80
2019-05-09T16:32:50.317Z,2.00
2019-05-09T16:35:20.924Z,1.20
2019-05-09T16:38:01.470Z,2.80
2019-05-09T16:40:23.738Z,2.00
2019-05-09T16:42:54.078Z,2.00
2019-05-09T16:45:24.577Z,2.00
2019-05-09T16:47:57.435Z,1.60
2019-05-09T16:50:31.808Z,2.00
2019-05-09T16:53:02.541Z,1.20
2019-05-09T16:55:34.492Z,1.80
2019-05-09T16:58:04.819Z,2.00
2019-05-09T17:00:40.252Z,2.80
2019-05-09T17:03:10.577Z,2.80
2019-05-09T17:05:41.092Z,3.40
2019-05-09T17:08:11.250Z,4.60
2019-05-09T17:10:41.456Z,3.40
2019-05-09T17:13:11.651Z,4.20
2019-05-09T17:15:42.930Z,6.20
2019-05-09T17:18:13.025Z,4.00
2019-05-09T17:21:15.165Z,4.00
2019-05-09T17:23:34.357Z,3.00
2019-05-09T17:26:04.792Z,4.20
2019-05-09T17:28:37.457Z,3.60
2019-05-09T17:31:08.653Z,4.60
2019-05-09T17:33:38.924Z,4.00
2019-05-09T17:36:09.372Z,2.60
2019-05-09T17:38:39.776Z,4.00
2019-05-09T17:41:10.101Z,4.60
2019-05-09T17:43:40.162Z,3.40
2019-05-09T17:46:10.744Z,3.60
2019-05-09T17:48:40.970Z,2.00
2019-05-09T17:51:11.125Z,3.00
2019-05-09T17:53:41.364Z,2.00
2019-05-09T17:56:11.973Z,2.00
2019-05-09T17:58:42.480Z,2.00
2019-05-09T18:01:13.011Z,3.40
2019-05-09T18:03:43.161Z,4.00
2019-05-09T18:06:13.785Z,3.00
2019-05-09T18:08:44.276Z,3.20
2019-05-09T18:11:14.404Z,3.00
2019-05-09T18:13:44.665Z,2.60
2019-05-09T18:16:15.092Z,3.00
2019-05-09T18:18:48.053Z,3.00
2019-05-09T18:21:17.941Z,3.60
2019-05-09T18:23:48.066Z,3.60
2019-05-09T18:26:18.680Z,3.00
2019-05-09T18:28:49.163Z,3.00
2019-05-09T18:31:19.513Z,3.00
2019-05-09T18:33:54.416Z,3.00
2019-05-09T18:36:24.699Z,2.80
2019-05-09T18:38:54.826Z,2.20
2019-05-09T18:41:25.665Z,4.00
2019-05-09T18:43:57.418Z,2.80
2019-05-09T18:46:28.017Z,1.20
2019-05-09T18:48:58.518Z,2.40
2019-05-09T18:51:28.893Z,2.40
2019-05-09T18:53:59.874Z,2.00
2019-05-09T18:56:30.483Z,3.80
2019-05-09T18:59:00.712Z,2.60
2019-05-09T19:01:31.225Z,3.00
2019-05-09T19:04:01.765Z,3.60
2019-05-09T19:06:31.992Z,3.20
2019-05-09T19:09:02.096Z,2.00
2019-05-09T19:11:32.774Z,2.20
2019-05-09T19:14:04.069Z,2.80
2019-05-09T19:16:35.607Z,2.80
2019-05-09T19:19:19.608Z,3.00
2019-05-09T19:21:51.857Z,4.20
2019-05-09T19:24:22.570Z,3.80
2019-05-09T19:26:53.112Z,3.80
2019-05-09T19:29:23.749Z,3.00
2019-05-09T19:31:54.086Z,3.80
2019-05-09T19:34:24.297Z,3.00
2019-05-09T19:36:54.599Z,1.00
2019-05-09T19:39:25.041Z,2.80
2019-05-09T19:41:55.460Z,3.00
2019-05-09T19:44:25.792Z,2.40
2019-05-09T19:46:56.623Z,2.00
2019-05-09T19:49:27.266Z,3.00
2019-05-09T19:51:57.409Z,3.00
2019-05-09T19:54:27.593Z,3.00
2019-05-09T19:56:58.148Z,3.00
2019-05-09T19:59:28.474Z,3.00
2019-05-09T20:01:58.583Z,3.00
2019-05-09T20:04:29.209Z,2.80
2019-05-09T20:06:59.718Z,3.00
2019-05-09T20:09:31.877Z,3.00
2019-05-09T20:12:03.429Z,3.00
2019-05-09T20:14:38.504Z,3.00
2019-05-09T20:17:08.905Z,2.00
2019-05-09T20:19:39.426Z,3.00
2019-05-09T20:22:09.650Z,2.40
2019-05-09T20:24:40.503Z,3.00
2019-05-09T20:27:10.625Z,3.00
2019-05-09T20:29:41.468Z,2.40
2019-05-09T20:32:11.673Z,2.80
2019-05-09T20:34:41.935Z,2.00
2019-05-09T20:37:12.229Z,3.00
2019-05-09T20:39:42.935Z,2.80
2019-05-09T20:42:13.349Z,2.00
2019-05-09T20:44:43.678Z,2.00
2019-05-09T20:47:14.171Z,2.00
2019-05-09T20:49:44.647Z,2.00
2019-05-09T20:52:14.940Z,2.40
2019-05-09T20:54:45.418Z,1.80
2019-05-09T20:57:16.556Z,2.00
2019-05-09T20:59:47.172Z,1.40
2019-05-09T21:02:17.900Z,1.60
2019-05-09T21:04:48.514Z,2.00
2019-05-09T21:07:18.945Z,2.80
2019-05-09T21:09:49.210Z,2.80
2019-05-09T21:12:19.716Z,2.00
2019-05-09T21:14:50.731Z,3.00
2019-05-09T21:17:21.426Z,2.00
2019-05-09T21:19:52.302Z,1.80
2019-05-09T21:22:22.691Z,2.00
2019-05-09T21:24:52.972Z,2.00
2019-05-09T21:27:24.193Z,1.60
2019-05-09T21:29:55.357Z,2.20
2019-05-09T21:32:26.584Z,3.40
2019-05-09T21:34:57.048Z,2.60
2019-05-09T21:37:28.182Z,3.40
2019-05-09T21:39:58.544Z,2.80
2019-05-09T21:42:29.029Z,2.60
2019-05-09T21:44:59.554Z,3.20
2019-05-09T21:47:29.713Z,2.00
2019-05-09T21:50:00.309Z,4.00
2019-05-09T21:52:30.425Z,2.20
2019-05-09T21:55:00.678Z,3.40
2019-05-09T21:57:30.871Z,3.00
2019-05-09T22:00:01.497Z,3.80
2019-05-09T22:02:32.032Z,3.00
2019-05-09T22:05:02.210Z,2.80
2019-05-09T22:07:32.384Z,2.40
2019-05-09T22:10:03.012Z,3.00
2019-05-09T22:12:33.330Z,4.00
2019-05-09T22:15:04.104Z,3.40
2019-05-09T22:17:40.728Z,3.00
2019-05-09T22:20:12.084Z,3.20
2019-05-09T22:22:42.912Z,4.00
2019-05-09T22:25:13.280Z,4.00
2019-05-09T22:27:43.977Z,3.40
2019-05-09T22:30:15.423Z,5.80
2019-05-09T22:32:45.765Z,5.00
2019-05-09T22:35:16.983Z,3.80
2019-05-09T22:37:47.001Z,3.00
2019-05-09T22:40:17.357Z,4.00
2019-05-09T22:42:47.449Z,3.80
2019-05-09T22:45:18.577Z,3.40
2019-05-09T22:47:49.237Z,3.00
2019-05-09T22:50:19.870Z,2.00
2019-05-09T22:52:50.800Z,3.00
2019-05-09T22:55:21.744Z,1.80
2019-05-09T22:57:52.254Z,2.80
2019-05-09T23:00:22.658Z,1.00
2019-05-09T23:02:53.045Z,3.00
2019-05-09T23:05:24.160Z,3.00
2019-05-09T23:07:54.684Z,2.40
2019-05-09T23:10:25.433Z,3.00
2019-05-09T23:12:55.515Z,4.60
2019-05-09T23:15:25.687Z,1.00
2019-05-09T23:17:55.787Z,2.00
2019-05-09T23:20:44.250Z,2.00
2019-05-09T23:23:22.404Z,2.00
2019-05-09T23:25:52.966Z,1.60
2019-05-09T23:28:23.974Z,1.00
2019-05-09T23:30:55.835Z,2.00
2019-05-09T23:33:28.826Z,3.00
2019-05-09T23:35:59.286Z,2.00
2019-05-09T23:38:29.821Z,2.00
2019-05-09T23:41:00.146Z,2.80
2019-05-09T23:43:30.869Z,2.60
2019-05-09T23:46:01.314Z,2.00
2019-05-09T23:48:32.015Z,2.00
2019-05-09T23:51:02.287Z,2.00
2019-05-09T23:53:37.038Z,3.00
2019-05-09T23:56:25.197Z,1.00
2019-05-09T23:59:13.545Z,1.00
